Endeavour — C6BE4 — position and weather

sailwx.info

Track history (hours):
 
Tides and Currents Weather Stations Pressure Air Temp Water Temp Dewpoint Dewpoint Depression Visibility Wind Speed Wind Dir Waves Ship Positions

Endeavour

Operator: Lindblad Expeditions

Last reported at 2019-Oct-15 22:06 UTC. Time now 2019-Oct-17 15:39 UTC.
Position S 05°10' E 112°07'.

Length 190 m; draft 10.4 m.

Type: Cargo ship. MMSI: 311000239.

Date/timePositionNaut miles runAvg speedWind from/ knotsBaromVisibWave heightAir tempDewpointWater temp
2019-Oct-15 22:06S 05°10' E 112°07'30111.8
2019-Oct-14 20:35S 06°14' E 117°02'211.5
2019-Oct-14 20:27S 06°14' E 117°04'612.2
2019-Oct-14 19:59S 06°15' E 117°10'611.9
2019-Oct-14 19:29S 06°15' E 117°16'611.9
2019-Oct-14 18:58S 06°16' E 117°22'611.6
2019-Oct-14 18:30S 06°17' E 117°27'611.8
2019-Oct-14 17:57S 06°18' E 117°33'612.3
2019-Oct-14 17:29S 06°19' E 117°39'612.1
2019-Oct-14 17:00S 06°20' E 117°45'611.9
2019-Oct-14 16:28S 06°20' E 117°51'611.7
2019-Oct-14 16:00S 06°21' E 117°57'611.8
2019-Oct-14 15:30S 06°21' E 118°03'612.0
2019-Oct-14 14:59S 06°22' E 118°09'611.9
2019-Oct-14 14:30S 06°22' E 118°15'611.6
2019-Oct-14 13:59S 06°23' E 118°21'612.1
2019-Oct-14 13:30S 06°24' E 118°27'1312.1
2019-Oct-14 12:26S 06°25' E 118°40'511.7
2019-Oct-14 11:59S 06°25' E 118°45'611.5
2019-Oct-14 11:30S 06°26' E 118°50'611.4
2019-Oct-14 10:59S 06°29' E 118°56'611.6
2019-Oct-14 10:30S 06°31' E 119°01'611.4
2019-Oct-14 10:00S 06°34' E 119°06'511.2
2019-Oct-14 09:31S 06°36' E 119°11'611.4
2019-Oct-14 08:59S 06°39' E 119°16'611.7
2019-Oct-14 08:30S 06°42' E 119°21'611.8
2019-Oct-14 07:59S 06°44' E 119°27'711.7
2019-Oct-14 07:25S 06°48' E 119°33'511.8
2019-Oct-14 06:58S 06°50' E 119°37'  
2019-Oct-11 21:41S 08°59' E 130°18'5012.2
2019-Oct-11 17:33S 09°07' E 131°08'111.2
2019-Oct-11 17:27S 09°07' E 131°09'612.3
2019-Oct-11 16:59S 09°08' E 131°15'612.3
2019-Oct-11 16:30S 09°09' E 131°21'612.5
2019-Oct-11 16:00S 09°10' E 131°27'612.6
2019-Oct-11 15:30S 09°11' E 131°33'712.4
2019-Oct-11 14:57S 09°12' E 131°40'512.5
2019-Oct-11 14:30S 09°13' E 131°46'  
Track history (hours):
 
Tides and Currents Weather Stations Pressure Air Temp Water Temp Dewpoint Dewpoint Depression Visibility Wind Speed Wind Dir Waves Ship Positions

Endeavour

Operator: Lindblad Expeditions

Last reported at 2019-Oct-15 22:06 UTC. Time now 2019-Oct-17 15:39 UTC.
Position S 05°10' E 112°07'.

Length 190 m; draft 10.4 m.

Type: Cargo ship. MMSI: 311000239.

Date/timePositionNaut miles runAvg speedWind from/ knotsBaromVisibWave heightAir tempDewpointWater temp
2019-Oct-15 22:06S 05°10' E 112°07'30111.8
2019-Oct-14 20:35S 06°14' E 117°02'211.5
2019-Oct-14 20:27S 06°14' E 117°04'612.2
2019-Oct-14 19:59S 06°15' E 117°10'611.9
2019-Oct-14 19:29S 06°15' E 117°16'611.9
2019-Oct-14 18:58S 06°16' E 117°22'611.6
2019-Oct-14 18:30S 06°17' E 117°27'611.8
2019-Oct-14 17:57S 06°18' E 117°33'612.3
2019-Oct-14 17:29S 06°19' E 117°39'612.1
2019-Oct-14 17:00S 06°20' E 117°45'611.9
2019-Oct-14 16:28S 06°20' E 117°51'611.7
2019-Oct-14 16:00S 06°21' E 117°57'611.8
2019-Oct-14 15:30S 06°21' E 118°03'612.0
2019-Oct-14 14:59S 06°22' E 118°09'611.9
2019-Oct-14 14:30S 06°22' E 118°15'611.6
2019-Oct-14 13:59S 06°23' E 118°21'612.1
2019-Oct-14 13:30S 06°24' E 118°27'1312.1
2019-Oct-14 12:26S 06°25' E 118°40'511.7
2019-Oct-14 11:59S 06°25' E 118°45'611.5
2019-Oct-14 11:30S 06°26' E 118°50'611.4
2019-Oct-14 10:59S 06°29' E 118°56'611.6
2019-Oct-14 10:30S 06°31' E 119°01'611.4
2019-Oct-14 10:00S 06°34' E 119°06'511.2
2019-Oct-14 09:31S 06°36' E 119°11'611.4
2019-Oct-14 08:59S 06°39' E 119°16'611.7
2019-Oct-14 08:30S 06°42' E 119°21'611.8
2019-Oct-14 07:59S 06°44' E 119°27'711.7
2019-Oct-14 07:25S 06°48' E 119°33'511.8
2019-Oct-14 06:58S 06°50' E 119°37'  
2019-Oct-11 21:41S 08°59' E 130°18'5012.2
2019-Oct-11 17:33S 09°07' E 131°08'111.2
2019-Oct-11 17:27S 09°07' E 131°09'612.3
2019-Oct-11 16:59S 09°08' E 131°15'612.3
2019-Oct-11 16:30S 09°09' E 131°21'612.5
2019-Oct-11 16:00S 09°10' E 131°27'612.6
2019-Oct-11 15:30S 09°11' E 131°33'712.4
2019-Oct-11 14:57S 09°12' E 131°40'512.5
2019-Oct-11 14:30S 09°13' E 131°46'  

Dump ship's entire track history